sensor_id;sensor_type;location;lat;lon;timestamp;pressure;altitude;pressure_sealevel;temperature;humidity
68758;BME280;55747;51.998;4.466;2023-05-19T00:00:55;56343.47;;;-144.48;100.00
68758;BME280;55747;51.998;4.466;2023-05-19T00:03:21;56329.00;;;-144.48;100.00
68758;BME280;55747;51.998;4.466;2023-05-19T00:05:47;56343.47;;;-144.48;100.00
68758;BME280;55747;51.998;4.466;2023-05-19T00:08:12;56339.34;;;-144.48;100.00
68758;BME280;55747;51.998;4.466;2023-05-19T00:10:40;56391.00;;;-144.48;100.00
68758;BME280;55747;51.998;4.466;2023-05-19T00:13:05;56351.75;;;-144.48;100.00
68758;BME280;55747;51.998;4.466;2023-05-19T00:15:31;56355.88;;;-144.48;100.00
68758;BME280;55747;51.998;4.466;2023-05-19T00:17:56;56326.94;;;-144.48;100.00
68758;BME280;55747;51.998;4.466;2023-05-19T00:20:21;56347.59;;;-144.48;100.00
68758;BME280;55747;51.998;4.466;2023-05-19T00:22:47;56341.41;;;-144.48;100.00
68758;BME280;55747;51.998;4.466;2023-05-19T00:25:12;56409.63;;;-144.48;100.00
68758;BME280;55747;51.998;4.466;2023-05-19T00:27:38;56314.53;;;-144.48;100.00
68758;BME280;55747;51.998;4.466;2023-05-19T00:30:03;56347.59;;;-144.48;100.00
68758;BME280;55747;51.998;4.466;2023-05-19T00:32:28;56345.53;;;-144.48;100.00
68758;BME280;55747;51.998;4.466;2023-05-19T00:34:53;56372.41;;;-144.48;100.00
68758;BME280;55747;51.998;4.466;2023-05-19T00:37:19;56337.25;;;-144.48;100.00
68758;BME280;55747;51.998;4.466;2023-05-19T00:39:44;56333.13;;;-144.48;100.00
68758;BME280;55747;51.998;4.466;2023-05-19T00:42:09;56364.13;;;-144.48;100.00
68758;BME280;55747;51.998;4.466;2023-05-19T00:44:36;56360.00;;;-144.48;100.00
68758;BME280;55747;51.998;4.466;2023-05-19T00:47:04;56351.75;;;-144.48;100.00
68758;BME280;55747;51.998;4.466;2023-05-19T00:49:29;56386.88;;;-144.48;100.00
68758;BME280;55747;51.998;4.466;2023-05-19T00:51:54;56364.13;;;-144.48;100.00
68758;BME280;55747;51.998;4.466;2023-05-19T00:54:20;56337.25;;;-144.48;100.00
68758;BME280;55747;51.998;4.466;2023-05-19T00:56:45;56360.00;;;-144.48;100.00
68758;BME280;55747;51.998;4.466;2023-05-19T00:59:10;56316.59;;;-144.48;100.00
68758;BME280;55747;51.998;4.466;2023-05-19T01:01:35;56335.19;;;-144.48;100.00
68758;BME280;55747;51.998;4.466;2023-05-19T01:04:01;56341.41;;;-144.48;100.00
68758;BME280;55747;51.998;4.466;2023-05-19T01:06:27;56364.13;;;-144.48;100.00
68758;BME280;55747;51.998;4.466;2023-05-19T01:08:53;56347.59;;;-144.48;100.00
68758;BME280;55747;51.998;4.466;2023-05-19T01:11:19;56353.81;;;-144.48;100.00
68758;BME280;55747;51.998;4.466;2023-05-19T01:13:45;56339.34;;;-144.48;100.00
68758;BME280;55747;51.998;4.466;2023-05-19T01:18:59;56343.47;;;-144.48;100.00
68758;BME280;55747;51.998;4.466;2023-05-19T01:29:01;56333.13;;;-144.48;100.00
68758;BME280;55747;51.998;4.466;2023-05-19T01:31:28;56343.47;;;-144.48;100.00
68758;BME280;55747;51.998;4.466;2023-05-19T01:33:53;56366.22;;;-144.48;100.00
68758;BME280;55747;51.998;4.466;2023-05-19T01:36:20;56353.81;;;-144.48;100.00
68758;BME280;55747;51.998;4.466;2023-05-19T01:38:47;56388.94;;;-144.48;100.00
68758;BME280;55747;51.998;4.466;2023-05-19T01:41:12;56322.78;;;-144.48;100.00
68758;BME280;55747;51.998;4.466;2023-05-19T01:43:38;56360.00;;;-144.48;100.00
68758;BME280;55747;51.998;4.466;2023-05-19T01:46:04;56347.59;;;-144.48;100.00
68758;BME280;55747;51.998;4.466;2023-05-19T01:48:29;56337.25;;;-144.48;100.00
68758;BME280;55747;51.998;4.466;2023-05-19T01:50:54;56349.66;;;-144.48;100.00
68758;BME280;55747;51.998;4.466;2023-05-19T01:53:21;56360.00;;;-144.48;100.00
68758;BME280;55747;51.998;4.466;2023-05-19T01:55:48;56380.69;;;-144.48;100.00
68758;BME280;55747;51.998;4.466;2023-05-19T01:58:22;56376.53;;;-144.48;100.00
68758;BME280;55747;51.998;4.466;2023-05-19T02:00:58;56349.66;;;-144.48;100.00
68758;BME280;55747;51.998;4.466;2023-05-19T02:03:33;56333.13;;;-144.48;100.00
68758;BME280;55747;51.998;4.466;2023-05-19T02:08:56;56304.19;;;-144.48;100.00
68758;BME280;55747;51.998;4.466;2023-05-19T02:14:01;56388.94;;;-144.48;100.00
68758;BME280;55747;51.998;4.466;2023-05-19T02:16:27;56393.09;;;-144.48;100.00
68758;BME280;55747;51.998;4.466;2023-05-19T02:18:53;56364.13;;;-144.48;100.00
68758;BME280;55747;51.998;4.466;2023-05-19T02:21:18;56345.53;;;-144.48;100.00
68758;BME280;55747;51.998;4.466;2023-05-19T02:23:43;56341.41;;;-144.48;100.00
68758;BME280;55747;51.998;4.466;2023-05-19T02:26:09;56339.34;;;-144.48;100.00
68758;BME280;55747;51.998;4.466;2023-05-19T02:28:34;56370.34;;;-144.48;100.00
68758;BME280;55747;51.998;4.466;2023-05-19T02:31:00;56399.28;;;-144.48;100.00
68758;BME280;55747;51.998;4.466;2023-05-19T02:33:25;56364.13;;;-144.48;100.00
68758;BME280;55747;51.998;4.466;2023-05-19T02:35:51;56374.47;;;-144.48;100.00
68758;BME280;55747;51.998;4.466;2023-05-19T02:38:16;56343.47;;;-144.48;100.00
68758;BME280;55747;51.998;4.466;2023-05-19T02:40:42;56347.59;;;-144.48;100.00
68758;BME280;55747;51.998;4.466;2023-05-19T02:43:07;56376.53;;;-144.48;100.00
68758;BME280;55747;51.998;4.466;2023-05-19T02:45:32;56347.59;;;-144.48;100.00
68758;BME280;55747;51.998;4.466;2023-05-19T02:47:58;56364.13;;;-144.48;100.00
68758;BME280;55747;51.998;4.466;2023-05-19T02:50:23;56360.00;;;-144.48;100.00
68758;BME280;55747;51.998;4.466;2023-05-19T02:52:48;56364.13;;;-144.48;100.00
68758;BME280;55747;51.998;4.466;2023-05-19T02:55:13;56395.16;;;-144.48;100.00
68758;BME280;55747;51.998;4.466;2023-05-19T02:57:41;56380.69;;;-144.48;100.00
68758;BME280;55747;51.998;4.466;2023-05-19T03:00:06;56343.47;;;-144.48;100.00
68758;BME280;55747;51.998;4.466;2023-05-19T03:02:32;56395.16;;;-144.48;100.00
68758;BME280;55747;51.998;4.466;2023-05-19T03:04:58;56345.53;;;-144.48;100.00
68758;BME280;55747;51.998;4.466;2023-05-19T03:07:25;56364.13;;;-144.48;100.00
68758;BME280;55747;51.998;4.466;2023-05-19T03:09:50;56335.19;;;-144.48;100.00
68758;BME280;55747;51.998;4.466;2023-05-19T03:12:16;56370.34;;;-144.48;100.00
68758;BME280;55747;51.998;4.466;2023-05-19T03:14:41;56382.75;;;-144.48;100.00
68758;BME280;55747;51.998;4.466;2023-05-19T03:17:07;56378.63;;;-144.48;100.00
68758;BME280;55747;51.998;4.466;2023-05-19T03:19:34;56386.88;;;-144.48;100.00
68758;BME280;55747;51.998;4.466;2023-05-19T03:21:59;56378.63;;;-144.48;100.00
68758;BME280;55747;51.998;4.466;2023-05-19T03:24:24;56349.66;;;-144.48;100.00
68758;BME280;55747;51.998;4.466;2023-05-19T03:26:49;56360.00;;;-144.48;100.00
68758;BME280;55747;51.998;4.466;2023-05-19T03:29:15;56393.09;;;-144.48;100.00
68758;BME280;55747;51.998;4.466;2023-05-19T03:31:40;56384.81;;;-144.48;100.00
68758;BME280;55747;51.998;4.466;2023-05-19T03:34:05;56370.34;;;-144.48;100.00
68758;BME280;55747;51.998;4.466;2023-05-19T03:36:31;56347.59;;;-144.48;100.00
68758;BME280;55747;51.998;4.466;2023-05-19T03:38:56;56360.00;;;-144.48;100.00
68758;BME280;55747;51.998;4.466;2023-05-19T03:41:22;56384.81;;;-144.48;100.00
68758;BME280;55747;51.998;4.466;2023-05-19T03:43:47;56347.59;;;-144.48;100.00
68758;BME280;55747;51.998;4.466;2023-05-19T03:46:12;56360.00;;;-144.48;100.00
68758;BME280;55747;51.998;4.466;2023-05-19T03:48:37;56355.88;;;-144.48;100.00
68758;BME280;55747;51.998;4.466;2023-05-19T03:51:02;56357.94;;;-144.48;100.00
68758;BME280;55747;51.998;4.466;2023-05-19T03:53:28;56401.34;;;-144.48;100.00
68758;BME280;55747;51.998;4.466;2023-05-19T03:55:54;56401.34;;;-144.48;100.00
68758;BME280;55747;51.998;4.466;2023-05-19T03:58:20;56382.75;;;-144.48;100.00
68758;BME280;55747;51.998;4.466;2023-05-19T04:00:45;56372.41;;;-144.48;100.00
68758;BME280;55747;51.998;4.466;2023-05-19T04:03:10;56386.88;;;-144.48;100.00
68758;BME280;55747;51.998;4.466;2023-05-19T04:05:36;56376.53;;;-144.48;100.00
68758;BME280;55747;51.998;4.466;2023-05-19T04:08:01;56337.25;;;-144.48;100.00
68758;BME280;55747;51.998;4.466;2023-05-19T04:10:26;56351.75;;;-144.48;100.00
68758;BME280;55747;51.998;4.466;2023-05-19T04:12:51;56403.41;;;-144.48;100.00
68758;BME280;55747;51.998;4.466;2023-05-19T04:15:17;56364.13;;;-144.48;100.00
68758;BME280;55747;51.998;4.466;2023-05-19T04:17:42;56380.69;;;-144.48;100.00
68758;BME280;55747;51.998;4.466;2023-05-19T04:20:07;56357.94;;;-144.48;100.00
68758;BME280;55747;51.998;4.466;2023-05-19T04:22:33;56417.91;;;-144.48;100.00
68758;BME280;55747;51.998;4.466;2023-05-19T04:24:59;56386.88;;;-144.48;100.00
68758;BME280;55747;51.998;4.466;2023-05-19T04:27:24;56382.75;;;-144.48;100.00
68758;BME280;55747;51.998;4.466;2023-05-19T04:29:51;56366.22;;;-144.48;100.00
68758;BME280;55747;51.998;4.466;2023-05-19T04:32:16;56382.75;;;-144.48;100.00
68758;BME280;55747;51.998;4.466;2023-05-19T04:34:42;56388.94;;;-144.48;100.00
68758;BME280;55747;51.998;4.466;2023-05-19T04:37:09;56397.22;;;-144.48;100.00
68758;BME280;55747;51.998;4.466;2023-05-19T04:39:34;56384.81;;;-144.48;100.00
68758;BME280;55747;51.998;4.466;2023-05-19T04:42:02;56382.75;;;-144.48;100.00
68758;BME280;55747;51.998;4.466;2023-05-19T04:44:27;56409.63;;;-144.48;100.00
68758;BME280;55747;51.998;4.466;2023-05-19T04:46:54;56360.00;;;-144.48;100.00
68758;BME280;55747;51.998;4.466;2023-05-19T04:49:22;56409.63;;;-144.48;100.00
68758;BME280;55747;51.998;4.466;2023-05-19T04:51:52;56438.56;;;-144.48;100.00
68758;BME280;55747;51.998;4.466;2023-05-19T04:54:18;56422.03;;;-144.48;100.00
68758;BME280;55747;51.998;4.466;2023-05-19T04:56:43;56417.91;;;-144.48;100.00
68758;BME280;55747;51.998;4.466;2023-05-19T04:59:08;56399.28;;;-144.48;100.00
68758;BME280;55747;51.998;4.466;2023-05-19T05:01:34;56399.28;;;-144.48;100.00
68758;BME280;55747;51.998;4.466;2023-05-19T05:04:04;56372.41;;;-144.48;100.00
68758;BME280;55747;51.998;4.466;2023-05-19T05:06:29;56424.09;;;-144.48;100.00
68758;BME280;55747;51.998;4.466;2023-05-19T05:08:55;56407.56;;;-144.48;100.00
68758;BME280;55747;51.998;4.466;2023-05-19T05:11:22;56417.91;;;-144.48;100.00
68758;BME280;55747;51.998;4.466;2023-05-19T05:13:48;56395.16;;;-144.48;100.00
68758;BME280;55747;51.998;4.466;2023-05-19T05:16:13;56386.88;;;-144.48;100.00
68758;BME280;55747;51.998;4.466;2023-05-19T05:18:38;56384.81;;;-144.48;100.00
68758;BME280;55747;51.998;4.466;2023-05-19T05:21:04;56378.63;;;-144.48;100.00
68758;BME280;55747;51.998;4.466;2023-05-19T05:23:30;56407.56;;;-144.48;100.00
68758;BME280;55747;51.998;4.466;2023-05-19T05:25:56;56382.75;;;-144.48;100.00
68758;BME280;55747;51.998;4.466;2023-05-19T05:28:21;56364.13;;;-144.48;100.00
68758;BME280;55747;51.998;4.466;2023-05-19T05:30:46;56382.75;;;-144.48;100.00
68758;BME280;55747;51.998;4.466;2023-05-19T05:33:13;56382.75;;;-144.48;100.00
68758;BME280;55747;51.998;4.466;2023-05-19T05:35:38;56372.41;;;-144.48;100.00
68758;BME280;55747;51.998;4.466;2023-05-19T05:38:03;56376.53;;;-144.48;100.00
68758;BME280;55747;51.998;4.466;2023-05-19T05:40:29;56386.88;;;-144.48;100.00
68758;BME280;55747;51.998;4.466;2023-05-19T05:42:54;56407.56;;;-144.48;100.00
68758;BME280;55747;51.998;4.466;2023-05-19T05:45:23;56372.41;;;-144.48;100.00
68758;BME280;55747;51.998;4.466;2023-05-19T05:47:49;56391.00;;;-144.48;100.00
68758;BME280;55747;51.998;4.466;2023-05-19T05:50:15;56399.28;;;-144.48;100.00
68758;BME280;55747;51.998;4.466;2023-05-19T05:52:40;56391.00;;;-144.48;100.00
68758;BME280;55747;51.998;4.466;2023-05-19T05:55:08;56401.34;;;-144.48;100.00
68758;BME280;55747;51.998;4.466;2023-05-19T05:57:34;56380.69;;;-144.48;100.00
68758;BME280;55747;51.998;4.466;2023-05-19T06:00:00;56366.22;;;-144.48;100.00
68758;BME280;55747;51.998;4.466;2023-05-19T06:02:25;56364.13;;;-144.48;100.00
68758;BME280;55747;51.998;4.466;2023-05-19T06:04:52;56368.28;;;-144.48;98.77
68758;BME280;55747;51.998;4.466;2023-05-19T06:07:18;56376.53;;;-144.48;92.21
68758;BME280;55747;51.998;4.466;2023-05-19T06:09:43;56370.34;;;-144.48;87.81
68758;BME280;55747;51.998;4.466;2023-05-19T06:12:08;56360.00;;;-144.48;85.75
68758;BME280;55747;51.998;4.466;2023-05-19T06:14:33;56417.91;;;-144.48;85.19
68758;BME280;55747;51.998;4.466;2023-05-19T06:16:58;56391.00;;;-144.48;83.06
68758;BME280;55747;51.998;4.466;2023-05-19T06:19:24;56428.22;;;-144.48;82.82
68758;BME280;55747;51.998;4.466;2023-05-19T06:21:50;56351.75;;;-144.48;82.60
68758;BME280;55747;51.998;4.466;2023-05-19T06:24:15;56413.75;;;-144.48;83.33
68758;BME280;55747;51.998;4.466;2023-05-19T06:26:40;56360.00;;;-144.48;85.46
68758;BME280;55747;51.998;4.466;2023-05-19T06:29:05;56366.22;;;-144.48;86.87
68758;BME280;55747;51.998;4.466;2023-05-19T06:31:30;56362.06;;;-144.48;85.60
68758;BME280;55747;51.998;4.466;2023-05-19T06:33:57;56415.81;;;-144.48;85.54
68758;BME280;55747;51.998;4.466;2023-05-19T06:36:22;56382.75;;;-144.48;85.62
68758;BME280;55747;51.998;4.466;2023-05-19T06:38:47;56388.94;;;-144.48;83.88
68758;BME280;55747;51.998;4.466;2023-05-19T06:41:12;56411.69;;;-144.48;82.54
68758;BME280;55747;51.998;4.466;2023-05-19T06:43:38;56413.75;;;-144.48;83.11
68758;BME280;55747;51.998;4.466;2023-05-19T06:46:03;56366.22;;;-144.48;83.48
68758;BME280;55747;51.998;4.466;2023-05-19T06:48:28;56397.22;;;-144.48;82.54
68758;BME280;55747;51.998;4.466;2023-05-19T06:50:54;56378.63;;;-144.48;84.95
68758;BME280;55747;51.998;4.466;2023-05-19T06:53:19;56380.69;;;-144.48;86.67
68758;BME280;55747;51.998;4.466;2023-05-19T06:55:45;56378.63;;;-144.48;86.07
68758;BME280;55747;51.998;4.466;2023-05-19T06:58:10;56374.47;;;-144.48;86.41
68758;BME280;55747;51.998;4.466;2023-05-19T07:00:35;56415.81;;;-144.48;85.88
68758;BME280;55747;51.998;4.466;2023-05-19T07:03:01;56409.63;;;-144.48;83.73
68758;BME280;55747;51.998;4.466;2023-05-19T07:05:26;56360.00;;;-144.48;80.31
68758;BME280;55747;51.998;4.466;2023-05-19T07:07:51;56324.88;;;-144.48;78.69
68758;BME280;55747;51.998;4.466;2023-05-19T07:10:16;56374.47;;;-144.48;77.60
68758;BME280;55747;51.998;4.466;2023-05-19T07:12:42;56378.63;;;-144.48;76.10
68758;BME280;55747;51.998;4.466;2023-05-19T07:15:10;56397.22;;;-144.48;70.77
68758;BME280;55747;51.998;4.466;2023-05-19T07:17:35;56405.50;;;-144.48;68.42
68758;BME280;55747;51.998;4.466;2023-05-19T07:20:01;56376.53;;;-144.48;66.07
68758;BME280;55747;51.998;4.466;2023-05-19T07:22:26;56366.22;;;-144.48;66.35
68758;BME280;55747;51.998;4.466;2023-05-19T07:24:51;56393.09;;;-144.48;69.19
68758;BME280;55747;51.998;4.466;2023-05-19T07:27:16;56411.69;;;-144.48;68.88
68758;BME280;55747;51.998;4.466;2023-05-19T07:29:42;56411.69;;;-144.48;69.23
68758;BME280;55747;51.998;4.466;2023-05-19T07:32:07;56360.00;;;-144.48;66.27
68758;BME280;55747;51.998;4.466;2023-05-19T07:34:32;56331.06;;;-144.48;62.52
68758;BME280;55747;51.998;4.466;2023-05-19T07:36:57;56368.28;;;-144.48;58.20
68758;BME280;55747;51.998;4.466;2023-05-19T07:39:23;56376.53;;;-144.48;59.97
68758;BME280;55747;51.998;4.466;2023-05-19T07:41:50;56378.63;;;-144.48;60.25
68758;BME280;55747;51.998;4.466;2023-05-19T07:44:19;56322.78;;;-144.48;58.01
68758;BME280;55747;51.998;4.466;2023-05-19T07:46:44;56335.19;;;-144.48;54.03
68758;BME280;55747;51.998;4.466;2023-05-19T07:49:10;56331.06;;;-144.48;53.00
68758;BME280;55747;51.998;4.466;2023-05-19T07:51:35;56351.75;;;-144.48;53.01
68758;BME280;55747;51.998;4.466;2023-05-19T07:54:00;56316.59;;;-144.48;53.71
68758;BME280;55747;51.998;4.466;2023-05-19T07:56:26;56351.75;;;-144.48;54.00
68758;BME280;55747;51.998;4.466;2023-05-19T07:58:51;56333.13;;;-144.48;52.42
68758;BME280;55747;51.998;4.466;2023-05-19T08:01:16;56316.59;;;-144.48;49.82
68758;BME280;55747;51.998;4.466;2023-05-19T08:03:41;56314.53;;;-144.48;49.36
68758;BME280;55747;51.998;4.466;2023-05-19T08:06:07;56308.31;;;-144.48;47.68
68758;BME280;55747;51.998;4.466;2023-05-19T08:08:32;56304.19;;;-144.48;48.24
68758;BME280;55747;51.998;4.466;2023-05-19T08:11:00;56335.19;;;-144.48;50.69
68758;BME280;55747;51.998;4.466;2023-05-19T08:13:25;56339.34;;;-144.48;52.14
68758;BME280;55747;51.998;4.466;2023-05-19T08:15:50;56329.00;;;-144.48;51.95
68758;BME280;55747;51.998;4.466;2023-05-19T08:18:16;56372.41;;;-144.48;53.05
68758;BME280;55747;51.998;4.466;2023-05-19T08:20:41;56314.53;;;-144.48;53.06
68758;BME280;55747;51.998;4.466;2023-05-19T08:23:06;56293.84;;;-144.48;50.76
68758;BME280;55747;51.998;4.466;2023-05-19T08:25:31;56312.47;;;-144.48;48.17
68758;BME280;55747;51.998;4.466;2023-05-19T08:27:57;56343.47;;;-144.48;44.63
68758;BME280;55747;51.998;4.466;2023-05-19T08:30:22;56345.53;;;-144.48;44.94
68758;BME280;55747;51.998;4.466;2023-05-19T08:32:47;56329.00;;;-144.48;44.78
68758;BME280;55747;51.998;4.466;2023-05-19T08:35:12;56277.31;;;-144.48;42.06
68758;BME280;55747;51.998;4.466;2023-05-19T08:37:38;56304.19;;;-144.48;41.38
68758;BME280;55747;51.998;4.466;2023-05-19T08:40:03;56285.59;;;-144.48;39.00
68758;BME280;55747;51.998;4.466;2023-05-19T08:42:29;56300.06;;;-144.48;38.95
68758;BME280;55747;51.998;4.466;2023-05-19T08:44:54;56293.84;;;-144.48;39.79
68758;BME280;55747;51.998;4.466;2023-05-19T08:47:20;56302.13;;;-144.48;41.37
68758;BME280;55747;51.998;4.466;2023-05-19T08:49:47;56295.91;;;-144.48;41.78
68758;BME280;55747;51.998;4.466;2023-05-19T08:52:24;56293.84;;;-144.48;42.07
68758;BME280;55747;51.998;4.466;2023-05-19T08:54:52;56285.59;;;-144.48;41.81
68758;BME280;55747;51.998;4.466;2023-05-19T08:57:18;56298.00;;;-144.48;41.35
68758;BME280;55747;51.998;4.466;2023-05-19T08:59:44;56316.59;;;-144.48;39.25
68758;BME280;55747;51.998;4.466;2023-05-19T09:02:10;56279.38;;;-144.48;37.83
68758;BME280;55747;51.998;4.466;2023-05-19T09:04:37;56306.25;;;-144.48;37.79
68758;BME280;55747;51.998;4.466;2023-05-19T09:07:02;56300.06;;;-144.48;37.75
68758;BME280;55747;51.998;4.466;2023-05-19T09:09:28;56277.31;;;-144.48;37.64
68758;BME280;55747;51.998;4.466;2023-05-19T09:11:54;56269.03;;;-144.48;36.25
68758;BME280;55747;51.998;4.466;2023-05-19T09:14:19;56287.66;;;-144.48;35.81
68758;BME280;55747;51.998;4.466;2023-05-19T09:16:44;56289.72;;;-144.48;35.70
68758;BME280;55747;51.998;4.466;2023-05-19T09:19:12;56269.03;;;-144.48;36.57
68758;BME280;55747;51.998;4.466;2023-05-19T09:21:39;56269.03;;;-144.48;35.71
68758;BME280;55747;51.998;4.466;2023-05-19T09:24:05;56304.19;;;-144.48;34.67
68758;BME280;55747;51.998;4.466;2023-05-19T09:26:40;56256.63;;;-144.48;35.83
68758;BME280;55747;51.998;4.466;2023-05-19T09:29:15;56283.50;;;-144.48;34.03
68758;BME280;55747;51.998;4.466;2023-05-19T09:31:54;56285.59;;;-144.48;34.13
68758;BME280;55747;51.998;4.466;2023-05-19T09:34:20;56271.13;;;-144.48;34.29
68758;BME280;55747;51.998;4.466;2023-05-19T09:36:46;56298.00;;;-144.48;35.23
68758;BME280;55747;51.998;4.466;2023-05-19T09:39:14;56289.72;;;-144.48;37.01
68758;BME280;55747;51.998;4.466;2023-05-19T09:41:39;56312.47;;;-144.48;36.53
68758;BME280;55747;51.998;4.466;2023-05-19T09:44:05;56269.03;;;-144.48;35.03
68758;BME280;55747;51.998;4.466;2023-05-19T09:46:31;56279.38;;;-144.48;35.13
68758;BME280;55747;51.998;4.466;2023-05-19T09:48:57;56277.31;;;-144.48;34.98
68758;BME280;55747;51.998;4.466;2023-05-19T09:51:23;56275.25;;;-144.48;35.21
68758;BME280;55747;51.998;4.466;2023-05-19T09:53:49;56295.91;;;-144.48;34.13
68758;BME280;55747;51.998;4.466;2023-05-19T09:56:14;56258.72;;;-144.48;33.97
68758;BME280;55747;51.998;4.466;2023-05-19T09:58:43;56240.09;;;-144.48;33.73
68758;BME280;55747;51.998;4.466;2023-05-19T10:01:09;56252.50;;;-144.48;33.42
68758;BME280;55747;51.998;4.466;2023-05-19T10:03:35;56252.50;;;-144.48;32.13
68758;BME280;55747;51.998;4.466;2023-05-19T10:06:00;56240.09;;;-144.48;30.63
68758;BME280;55747;51.998;4.466;2023-05-19T10:08:28;56240.09;;;-144.48;31.33
68758;BME280;55747;51.998;4.466;2023-05-19T10:10:54;56248.38;;;-144.48;31.99
68758;BME280;55747;51.998;4.466;2023-05-19T10:13:19;56283.50;;;-144.48;32.77
68758;BME280;55747;51.998;4.466;2023-05-19T10:15:45;56248.38;;;-144.48;32.96
68758;BME280;55747;51.998;4.466;2023-05-19T10:18:10;56283.50;;;-144.48;33.27
68758;BME280;55747;51.998;4.466;2023-05-19T10:20:36;56235.97;;;-144.48;34.90
68758;BME280;55747;51.998;4.466;2023-05-19T10:23:01;56295.91;;;-144.48;35.58
68758;BME280;55747;51.998;4.466;2023-05-19T10:25:28;56269.03;;;-144.48;34.44
68758;BME280;55747;51.998;4.466;2023-05-19T10:27:56;56254.56;;;-144.48;32.79
68758;BME280;55747;51.998;4.466;2023-05-19T10:30:26;56262.84;;;-144.48;32.18
68758;BME280;55747;51.998;4.466;2023-05-19T10:32:52;56233.91;;;-144.48;32.06
68758;BME280;55747;51.998;4.466;2023-05-19T10:38:14;56235.97;;;-144.48;31.68
68758;BME280;55747;51.998;4.466;2023-05-19T10:46:05;56240.09;;;-144.48;32.56
68758;BME280;55747;51.998;4.466;2023-05-19T10:48:34;56219.44;;;-144.48;31.67
68758;BME280;55747;51.998;4.466;2023-05-19T10:51:00;56225.63;;;-144.48;31.08
68758;BME280;55747;51.998;4.466;2023-05-19T10:53:29;56198.75;;;-144.48;29.98
68758;BME280;55747;51.998;4.466;2023-05-19T10:55:55;56254.56;;;-144.48;30.99
68758;BME280;55747;51.998;4.466;2023-05-19T11:01:28;56256.63;;;-144.48;31.99
68758;BME280;55747;51.998;4.466;2023-05-19T11:03:54;56217.38;;;-144.48;31.53
68758;BME280;55747;51.998;4.466;2023-05-19T11:06:28;56269.03;;;-144.48;32.49
68758;BME280;55747;51.998;4.466;2023-05-19T11:11:21;56250.44;;;-144.48;32.23
68758;BME280;55747;51.998;4.466;2023-05-19T11:13:53;56238.03;;;-144.48;31.74
68758;BME280;55747;51.998;4.466;2023-05-19T11:16:25;56202.88;;;-144.48;31.14
68758;BME280;55747;51.998;4.466;2023-05-19T11:18:52;56235.97;;;-144.48;30.66
68758;BME280;55747;51.998;4.466;2023-05-19T11:21:18;56264.91;;;-144.48;32.27
68758;BME280;55747;51.998;4.466;2023-05-19T11:23:43;56250.44;;;-144.48;31.00
68758;BME280;55747;51.998;4.466;2023-05-19T11:26:08;56219.44;;;-144.48;31.39
68758;BME280;55747;51.998;4.466;2023-05-19T11:28:33;56227.69;;;-144.48;30.96
68758;BME280;55747;51.998;4.466;2023-05-19T11:30:59;56240.09;;;-144.48;31.47
68758;BME280;55747;51.998;4.466;2023-05-19T11:33:26;56217.38;;;-144.48;31.19
68758;BME280;55747;51.998;4.466;2023-05-19T11:35:52;56231.84;;;-144.48;30.06
68758;BME280;55747;51.998;4.466;2023-05-19T11:38:18;56244.25;;;-144.48;29.97
68758;BME280;55747;51.998;4.466;2023-05-19T11:40:43;56231.84;;;-144.48;31.59
68758;BME280;55747;51.998;4.466;2023-05-19T11:43:08;56238.03;;;-144.48;30.22
68758;BME280;55747;51.998;4.466;2023-05-19T11:45:34;56231.84;;;-144.48;29.80
68758;BME280;55747;51.998;4.466;2023-05-19T11:47:59;56200.81;;;-144.48;30.09
68758;BME280;55747;51.998;4.466;2023-05-19T11:50:25;56233.91;;;-144.48;30.01
68758;BME280;55747;51.998;4.466;2023-05-19T11:52:51;56225.63;;;-144.48;30.75
68758;BME280;55747;51.998;4.466;2023-05-19T11:55:17;56246.31;;;-144.48;31.87
68758;BME280;55747;51.998;4.466;2023-05-19T11:57:55;56258.72;;;-144.48;33.62
68758;BME280;55747;51.998;4.466;2023-05-19T12:00:27;56266.97;;;-144.48;35.38
68758;BME280;55747;51.998;4.466;2023-05-19T12:02:53;56254.56;;;-144.48;35.39
68758;BME280;55747;51.998;4.466;2023-05-19T12:05:22;56223.56;;;-144.48;32.79
68758;BME280;55747;51.998;4.466;2023-05-19T12:07:48;56233.91;;;-144.48;32.35
68758;BME280;55747;51.998;4.466;2023-05-19T12:10:15;56240.09;;;-144.48;32.71
68758;BME280;55747;51.998;4.466;2023-05-19T12:12:40;56209.09;;;-144.48;32.30
68758;BME280;55747;51.998;4.466;2023-05-19T12:15:06;56202.88;;;-144.48;31.99
68758;BME280;55747;51.998;4.466;2023-05-19T12:17:32;56258.72;;;-144.48;32.80
68758;BME280;55747;51.998;4.466;2023-05-19T12:19:57;56231.84;;;-144.48;32.88
68758;BME280;55747;51.998;4.466;2023-05-19T12:22:23;56252.50;;;-144.48;32.00
68758;BME280;55747;51.998;4.466;2023-05-19T12:24:48;56198.75;;;-144.48;30.66
68758;BME280;55747;51.998;4.466;2023-05-19T12:27:18;56227.69;;;-144.48;31.80
68758;BME280;55747;51.998;4.466;2023-05-19T12:29:48;56248.38;;;-144.48;31.46
68758;BME280;55747;51.998;4.466;2023-05-19T12:32:13;56231.84;;;-144.48;31.38
68758;BME280;55747;51.998;4.466;2023-05-19T12:34:39;56204.97;;;-144.48;29.26
68758;BME280;55747;51.998;4.466;2023-05-19T12:37:04;56231.84;;;-144.48;29.88
68758;BME280;55747;51.998;4.466;2023-05-19T12:39:30;56229.75;;;-144.48;29.35
68758;BME280;55747;51.998;4.466;2023-05-19T12:42:02;56233.91;;;-144.48;29.83
68758;BME280;55747;51.998;4.466;2023-05-19T12:44:27;56198.75;;;-144.48;30.24
68758;BME280;55747;51.998;4.466;2023-05-19T12:46:55;56204.97;;;-144.48;30.61
68758;BME280;55747;51.998;4.466;2023-05-19T12:49:21;56211.16;;;-144.48;29.93
68758;BME280;55747;51.998;4.466;2023-05-19T12:51:52;56238.03;;;-144.48;30.81
68758;BME280;55747;51.998;4.466;2023-05-19T12:54:19;56231.84;;;-144.48;31.32
68758;BME280;55747;51.998;4.466;2023-05-19T12:56:50;56211.16;;;-144.48;30.84
68758;BME280;55747;51.998;4.466;2023-05-19T12:59:20;56209.09;;;-144.48;32.02